Time;durP1;ratioP1;P1;durP2;ratioP2;P2;SDS_P1;SDS_P2;PMS_P1;PMS_P2;Temp;Humidity;BMP_temperature;BMP_pressure;BME280_temperature;BME280_humidity;BME280_pressure;Samples;Min_cycle;Max_cycle;Signal;HPM_P1;HPM_P2
2022/01/08 00:01:47;;;;;;;1.83;0.80;;;6.10;82.30;;;;;;6226110;28;20052;-87
2022/01/08 00:04:48;;;;;;;2.50;0.68;;;6.00;82.40;;;;;;6226251;28;20057;-87
2022/01/08 00:07:52;;;;;;;2.60;0.80;;;6.00;82.30;;;;;;6227378;28;20038;-87
2022/01/08 00:10:54;;;;;;;2.92;0.60;;;6.10;82.30;;;;;;6226511;28;20428;-87
2022/01/08 00:13:57;;;;;;;1.45;0.68;;;6.20;82.00;;;;;;6226549;28;20053;-88
2022/01/08 00:17:00;;;;;;;2.35;0.70;;;6.20;81.90;;;;;;6225927;28;20100;-88
2022/01/08 00:20:04;;;;;;;3.28;1.52;;;6.20;82.10;;;;;;6225054;28;20046;-87
2022/01/08 00:23:06;;;;;;;1.02;0.68;;;6.30;81.80;;;;;;6226309;28;20124;-88
2022/01/08 00:26:08;;;;;;;3.15;1.30;;;6.30;81.50;;;;;;6227802;28;20060;-87
2022/01/08 00:29:16;;;;;;;2.35;0.40;;;6.40;82.10;;;;;;6226669;28;20060;-88
2022/01/08 00:32:18;;;;;;;5.13;0.77;;;6.50;81.90;;;;;;6226723;28;20112;-87
2022/01/08 00:35:23;;;;;;;5.85;0.88;;;6.50;81.80;;;;;;6225664;28;20129;-88
2022/01/08 00:38:25;;;;;;;5.80;0.85;;;6.50;81.50;;;;;;6225075;28;20061;-88
2022/01/08 00:44:44;;;;;;;4.32;0.93;;;6.60;81.50;;;;;;6199101;28;20082;-89
2022/01/08 00:48:02;;;;;;;3.20;0.47;;;6.70;81.10;;;;;;6200014;28;20501;-88
2022/01/08 00:51:04;;;;;;;8.60;0.60;;;6.80;81.00;;;;;;6202822;28;20047;-84
2022/01/08 00:54:35;;;;;;;1.67;0.40;;;6.80;80.80;;;;;;6203629;28;20178;-88
2022/01/08 00:57:37;;;;;;;3.90;0.68;;;6.90;80.80;;;;;;6200840;28;20177;-88
2022/01/08 01:00:41;;;;;;;2.15;0.85;;;7.00;80.30;;;;;;6200454;28;20427;-87
2022/01/08 01:03:43;;;;;;;4.03;0.77;;;7.10;80.50;;;;;;6200173;28;20050;-88
2022/01/08 01:06:45;;;;;;;2.53;0.80;;;7.10;81.00;;;;;;6213318;28;20128;-88
2022/01/08 01:09:47;;;;;;;4.47;0.88;;;7.20;81.30;;;;;;6223963;28;20122;-88
2022/01/08 01:12:49;;;;;;;1.50;0.47;;;7.10;81.40;;;;;;6224513;28;20133;-88
2022/01/08 01:15:52;;;;;;;0.68;0.63;;;7.10;82.00;;;;;;6223816;28;20065;-88
2022/01/08 01:18:55;;;;;;;6.32;0.68;;;6.90;83.00;;;;;;6224184;28;20056;-88
2022/01/08 01:21:59;;;;;;;9.57;0.80;;;6.80;83.60;;;;;;6222159;28;20128;-88
2022/01/08 01:25:05;;;;;;;5.20;1.10;;;6.70;84.30;;;;;;6235860;28;20033;-88
2022/01/08 01:41:28;;;;;;;1.00;0.38;;;6.60;85.60;;;;;;6208928;28;20050;-87
2022/01/08 01:47:52;;;;;;;3.00;1.17;;;6.30;90.60;;;;;;6207380;28;20475;-86
2022/01/08 01:50:54;;;;;;;1.35;0.57;;;6.10;92.00;;;;;;6207561;28;20053;-87
2022/01/08 01:54:09;;;;;;;6.35;0.90;;;5.90;92.10;;;;;;6205517;28;20054;-87
2022/01/08 01:57:13;;;;;;;3.08;0.60;;;5.80;92.90;;;;;;6229719;28;20503;-87
2022/01/08 02:00:16;;;;;;;6.13;0.68;;;5.90;93.90;;;;;;6231523;28;20050;-86
2022/01/08 02:03:19;;;;;;;5.90;1.63;;;5.80;94.60;;;;;;6230642;28;20052;-86
2022/01/08 02:06:21;;;;;;;7.00;2.03;;;5.70;94.60;;;;;;6228033;28;20053;-86
2022/01/08 02:09:23;;;;;;;3.97;0.95;;;5.70;95.10;;;;;;6230323;28;20113;-86
2022/01/08 02:12:25;;;;;;;2.58;0.60;;;5.70;95.00;;;;;;6231885;28;20058;-87
2022/01/08 02:15:27;;;;;;;5.45;1.10;;;5.70;95.30;;;;;;6230876;28;20045;-86
2022/01/08 02:18:30;;;;;;;3.90;1.20;;;5.70;95.10;;;;;;6230893;28;20049;-85
2022/01/08 02:21:33;;;;;;;2.20;0.45;;;5.70;95.30;;;;;;6231326;28;20124;-86
2022/01/08 02:24:35;;;;;;;1.48;1.02;;;5.70;95.20;;;;;;6229306;28;20503;-85
2022/01/08 02:27:37;;;;;;;3.03;1.73;;;5.60;95.50;;;;;;6230067;28;20077;-84
2022/01/08 02:30:38;;;;;;;6.18;1.52;;;5.40;95.10;;;;;;6228553;28;20065;-84
2022/01/08 02:33:41;;;;;;;20.25;1.02;;;5.40;95.70;;;;;;6227798;28;20041;-84
2022/01/08 02:36:44;;;;;;;1.58;0.60;;;5.30;95.90;;;;;;6228301;28;20045;-84
2022/01/08 02:55:18;;;;;;;3.67;0.50;;;5.10;97.10;;;;;;6139559;29;20051;-86
2022/01/08 02:58:21;;;;;;;1.08;0.52;;;5.10;97.20;;;;;;6127419;29;20074;-87
2022/01/08 03:01:23;;;;;;;1.63;0.57;;;5.10;97.10;;;;;;6205343;28;20045;-85
2022/01/08 03:04:25;;;;;;;0.57;0.50;;;5.10;97.10;;;;;;6241565;28;20472;-85
2022/01/08 03:10:44;;;;;;;1.92;0.40;;;5.00;97.30;;;;;;6238424;28;20042;-84
2022/01/08 03:13:46;;;;;;;1.08;0.63;;;5.00;97.40;;;;;;6232320;28;20046;-87
2022/01/08 03:16:48;;;;;;;1.95;0.52;;;5.10;97.70;;;;;;6232850;28;20053;-87
2022/01/08 03:19:52;;;;;;;4.03;0.88;;;5.20;97.50;;;;;;6238083;28;20133;-86
2022/01/08 03:23:00;;;;;;;2.53;1.23;;;5.20;97.30;;;;;;6233824;28;20053;-86
2022/01/08 03:26:04;;;;;;;2.10;0.60;;;5.10;96.80;;;;;;6232285;28;20046;-87
2022/01/08 03:29:06;;;;;;;3.20;1.50;;;5.00;96.90;;;;;;6232702;28;20069;-87
2022/01/08 03:32:08;;;;;;;2.63;1.13;;;5.00;97.10;;;;;;6232782;28;20099;-87
2022/01/08 03:35:10;;;;;;;3.88;0.60;;;5.00;97.20;;;;;;6235973;28;20475;-86
2022/01/08 03:38:12;;;;;;;1.58;0.50;;;5.10;97.10;;;;;;6229832;28;20049;-85
2022/01/08 03:41:22;;;;;;;2.95;0.50;;;5.10;97.10;;;;;;6225422;28;20128;-87
2022/01/08 03:44:24;;;;;;;1.25;0.80;;;5.10;97.10;;;;;;6225983;28;20061;-88
2022/01/08 03:47:42;;;;;;;4.13;0.65;;;5.20;97.00;;;;;;6225362;28;20147;-87
2022/01/08 03:50:44;;;;;;;8.13;1.63;;;5.10;96.70;;;;;;6225670;28;20053;-88
2022/01/08 03:53:46;;;;;;;0.77;0.52;;;5.00;96.70;;;;;;6225218;28;20411;-85
2022/01/08 03:56:50;;;;;;;1.95;0.47;;;4.90;96.90;;;;;;6226163;28;20045;-87
2022/01/08 03:59:52;;;;;;;1.02;0.50;;;4.80;96.80;;;;;;6231082;28;20146;-87
2022/01/08 04:02:54;;;;;;;0.98;0.52;;;4.70;96.90;;;;;;6224918;28;20180;-87
2022/01/08 04:06:02;;;;;;;2.63;0.70;;;4.60;97.20;;;;;;6224837;28;20122;-88
2022/01/08 04:09:04;;;;;;;3.80;0.80;;;4.60;97.20;;;;;;6225177;28;20046;-87
2022/01/08 04:12:10;;;;;;;4.63;2.15;;;4.60;97.20;;;;;;6224239;28;20070;-87
2022/01/08 04:15:35;;;;;;;3.53;0.98;;;4.50;97.30;;;;;;6224370;28;20046;-87
2022/01/08 04:18:37;;;;;;;4.53;1.20;;;4.50;97.20;;;;;;6224112;28;20124;-87
2022/01/08 04:22:09;;;;;;;3.38;1.02;;;4.50;97.40;;;;;;6224074;28;20038;-88
2022/01/08 04:25:12;;;;;;;9.73;1.70;;;4.60;97.70;;;;;;6224553;28;20060;-88
2022/01/08 04:28:15;;;;;;;1.95;1.00;;;4.60;97.50;;;;;;6224608;28;20563;-87
2022/01/08 04:31:17;;;;;;;3.50;1.17;;;4.70;97.40;;;;;;6224265;28;20569;-86
2022/01/08 04:34:19;;;;;;;4.18;1.15;;;4.80;97.40;;;;;;6224054;28;20421;-87
2022/01/08 04:37:21;;;;;;;6.35;1.63;;;4.80;97.60;;;;;;6224181;28;20065;-87
2022/01/08 04:40:23;;;;;;;2.90;1.38;;;4.80;97.30;;;;;;6229088;28;20093;-86
2022/01/08 04:43:28;;;;;;;7.32;1.02;;;4.90;97.40;;;;;;6228936;28;20523;-87
2022/01/08 04:46:30;;;;;;;2.95;1.20;;;5.00;97.40;;;;;;6228218;28;20077;-87
2022/01/08 04:49:32;;;;;;;2.65;1.48;;;4.80;97.50;;;;;;6229001;28;20046;-88
2022/01/08 04:52:34;;;;;;;3.80;1.60;;;4.90;97.50;;;;;;6230243;28;20093;-87
2022/01/08 04:55:36;;;;;;;2.90;1.15;;;5.00;97.50;;;;;;6227313;28;20052;-87
2022/01/08 04:58:40;;;;;;;2.15;1.08;;;5.10;97.40;;;;;;6228513;28;20149;-87
2022/01/08 05:01:43;;;;;;;3.33;1.27;;;5.10;97.30;;;;;;6226154;28;20522;-87
2022/01/08 05:04:45;;;;;;;1.02;0.73;;;5.10;97.20;;;;;;6247953;28;20068;-88
2022/01/08 05:07:47;;;;;;;2.70;0.68;;;5.30;97.30;;;;;;6251821;28;20038;-88
2022/01/08 05:10:49;;;;;;;1.10;0.38;;;5.40;97.20;;;;;;6238108;28;20113;-87
2022/01/08 05:13:52;;;;;;;0.70;0.30;;;5.40;97.00;;;;;;6231487;28;20042;-87
2022/01/08 05:17:14;;;;;;;0.47;0.30;;;5.40;96.60;;;;;;6228489;28;20060;-85
2022/01/08 05:23:46;;;;;;;1.02;0.22;;;5.40;96.40;;;;;;6232772;28;20049;-87
2022/01/08 05:26:48;;;;;;;0.80;0.47;;;5.20;96.00;;;;;;6231381;28;20056;-86
2022/01/08 05:29:53;;;;;;;2.40;0.20;;;5.10;95.90;;;;;;6232595;28;20046;-87
2022/01/08 05:33:00;;;;;;;0.43;0.20;;;5.10;96.30;;;;;;6233729;28;20038;-87
2022/01/08 05:36:01;;;;;;;0.30;0.28;;;5.10;96.40;;;;;;6231544;28;20050;-87
2022/01/08 05:39:03;;;;;;;0.20;0.10;;;5.10;96.20;;;;;;6227124;28;20069;-88
2022/01/08 05:42:06;;;;;;;0.80;0.45;;;5.10;96.10;;;;;;6223450;28;20125;-88
2022/01/08 05:45:10;;;;;;;0.60;0.30;;;5.00;96.10;;;;;;6223711;28;20057;-88
2022/01/08 05:48:13;;;;;;;0.55;0.22;;;5.00;96.10;;;;;;6223712;28;20578;-88
2022/01/08 05:51:14;;;;;;;1.27;0.35;;;5.00;96.00;;;;;;6223193;28;20046;-88
2022/01/08 05:54:17;;;;;;;0.77;0.30;;;4.90;95.70;;;;;;6223968;28;20042;-88
2022/01/08 05:57:18;;;;;;;2.35;0.40;;;4.80;95.50;;;;;;6223320;28;20045;-88
2022/01/08 06:00:22;;;;;;;0.60;0.38;;;4.80;95.40;;;;;;6223442;28;20131;-89
2022/01/08 06:03:23;;;;;;;0.40;0.20;;;4.80;95.70;;;;;;6223237;28;20049;-88
2022/01/08 06:06:25;;;;;;;3.80;0.60;;;4.80;95.50;;;;;;6222893;28;20456;-88
2022/01/08 06:09:27;;;;;;;0.75;0.28;;;4.80;95.50;;;;;;6222805;28;20176;-87
2022/01/08 06:12:29;;;;;;;2.97;0.40;;;4.90;95.40;;;;;;6223279;28;20057;-87
2022/01/08 06:15:32;;;;;;;0.98;0.25;;;5.00;95.30;;;;;;6222875;28;20046;-87
2022/01/08 06:18:34;;;;;;;2.05;0.40;;;4.90;95.20;;;;;;6226788;28;20042;-89
2022/01/08 06:21:37;;;;;;;1.40;0.30;;;4.90;95.10;;;;;;6227755;28;20171;-87
2022/01/08 06:24:39;;;;;;;1.42;0.35;;;5.00;95.00;;;;;;6228031;28;20053;-87
2022/01/08 06:27:40;;;;;;;2.95;0.55;;;5.00;94.80;;;;;;6227605;28;20052;-87
2022/01/08 06:30:43;;;;;;;2.38;0.22;;;5.00;94.60;;;;;;6229976;28;20049;-84
2022/01/08 06:33:46;;;;;;;0.75;0.32;;;5.00;94.40;;;;;;6243411;28;20129;-83
2022/01/08 06:36:48;;;;;;;1.63;0.60;;;5.00;94.30;;;;;;6242829;28;20120;-85
2022/01/08 06:39:50;;;;;;;3.15;0.30;;;5.00;94.20;;;;;;6243335;28;20060;-86
2022/01/08 06:42:52;;;;;;;1.30;0.50;;;4.90;94.00;;;;;;6242953;28;20071;-85
2022/01/08 06:45:55;;;;;;;2.05;0.68;;;5.00;94.00;;;;;;6244471;28;20056;-83
2022/01/08 06:48:57;;;;;;;5.22;0.65;;;4.90;93.80;;;;;;6249463;28;20118;-83
2022/01/08 06:51:59;;;;;;;0.55;0.28;;;5.00;93.90;;;;;;6249585;28;20057;-84
2022/01/08 06:55:00;;;;;;;1.10;0.50;;;5.00;93.70;;;;;;6248830;28;20060;-85
2022/01/08 06:58:02;;;;;;;1.45;0.40;;;5.00;93.80;;;;;;6248370;28;20110;-85
2022/01/08 07:01:05;;;;;;;1.33;0.50;;;5.00;93.80;;;;;;6247884;28;20084;-83
2022/01/08 07:04:07;;;;;;;1.25;0.40;;;5.00;93.50;;;;;;6247807;28;20101;-84
2022/01/08 07:07:09;;;;;;;1.65;0.55;;;5.00;93.10;;;;;;6246591;28;20054;-86
2022/01/08 07:10:11;;;;;;;0.50;0.35;;;4.90;93.00;;;;;;6247002;28;20476;-84
2022/01/08 07:13:12;;;;;;;3.97;1.23;;;4.90;93.00;;;;;;6246725;28;20117;-83
2022/01/08 07:16:15;;;;;;;1.00;0.40;;;4.90;93.40;;;;;;6245129;28;20068;-84
2022/01/08 07:19:18;;;;;;;7.07;1.33;;;4.90;93.20;;;;;;6245261;28;20102;-85
2022/01/08 07:22:20;;;;;;;1.65;0.80;;;4.90;93.60;;;;;;6243989;28;20052;-83
2022/01/08 07:25:21;;;;;;;2.17;0.80;;;4.90;93.80;;;;;;6243587;28;20136;-85
2022/01/08 07:28:23;;;;;;;1.95;1.20;;;4.90;93.30;;;;;;6242724;28;20050;-85
2022/01/08 07:31:26;;;;;;;2.28;0.90;;;4.90;93.50;;;;;;6246228;28;20128;-83
2022/01/08 07:34:28;;;;;;;4.32;1.25;;;4.90;93.50;;;;;;6242812;28;20073;-85
2022/01/08 07:37:30;;;;;;;1.38;0.90;;;4.90;93.10;;;;;;6241149;28;20046;-84
2022/01/08 07:40:32;;;;;;;3.40;0.82;;;4.90;93.00;;;;;;6240312;28;20133;-84
2022/01/08 07:43:33;;;;;;;1.95;0.63;;;4.90;92.70;;;;;;6239071;28;20077;-84
2022/01/08 07:46:36;;;;;;;0.75;0.45;;;4.80;92.50;;;;;;6239045;28;20056;-84
2022/01/08 07:49:39;;;;;;;1.50;0.70;;;4.80;92.60;;;;;;6238592;28;20046;-84
2022/01/08 07:52:42;;;;;;;2.58;0.90;;;4.80;92.60;;;;;;6238230;28;20054;-84
2022/01/08 07:55:44;;;;;;;1.77;1.02;;;4.80;92.60;;;;;;6237852;28;20050;-84
2022/01/08 07:58:46;;;;;;;6.57;1.60;;;4.80;92.30;;;;;;6238427;28;20571;-83
2022/01/08 08:01:49;;;;;;;1.35;0.90;;;4.80;92.30;;;;;;6240355;28;20443;-84
2022/01/08 08:04:51;;;;;;;6.38;1.20;;;4.90;92.60;;;;;;6245423;28;20049;-84
2022/01/08 08:07:54;;;;;;;2.72;1.85;;;4.90;92.60;;;;;;6244794;28;20046;-85
2022/01/08 08:10:56;;;;;;;6.40;1.55;;;4.90;92.10;;;;;;6245703;28;20045;-85
2022/01/08 08:13:58;;;;;;;5.47;1.63;;;4.90;92.50;;;;;;6245919;28;20046;-84
2022/01/08 08:17:01;;;;;;;4.22;1.73;;;5.00;92.00;;;;;;6245676;28;20077;-85
2022/01/08 08:20:04;;;;;;;8.30;2.38;;;5.00;92.00;;;;;;6244164;28;20066;-84
2022/01/08 08:23:06;;;;;;;2.67;1.38;;;4.90;91.60;;;;;;6242880;28;20301;-85
2022/01/08 08:26:08;;;;;;;2.58;1.13;;;4.90;91.60;;;;;;6244979;28;20042;-85
2022/01/08 08:29:10;;;;;;;6.50;2.50;;;4.90;91.20;;;;;;6246405;28;20080;-85
2022/01/08 08:32:13;;;;;;;3.80;2.00;;;4.90;91.50;;;;;;6244258;28;20058;-84
2022/01/08 08:35:15;;;;;;;4.97;1.70;;;4.90;91.00;;;;;;6244128;28;20549;-85
2022/01/08 08:38:17;;;;;;;7.13;1.60;;;4.90;91.30;;;;;;6244351;28;20078;-84
2022/01/08 08:41:18;;;;;;;8.20;1.58;;;5.00;91.40;;;;;;6243991;28;20050;-85
2022/01/08 08:44:20;;;;;;;10.85;1.77;;;5.10;90.80;;;;;;6249384;28;20105;-83
2022/01/08 08:47:23;;;;;;;2.80;1.38;;;5.00;90.60;;;;;;6255296;28;20030;-84
2022/01/08 08:50:25;;;;;;;4.88;1.63;;;5.00;90.80;;;;;;6262694;28;20137;-85
2022/01/08 08:53:27;;;;;;;5.35;2.28;;;5.10;90.90;;;;;;6263040;28;20045;-84
2022/01/08 08:56:29;;;;;;;7.15;2.05;;;5.10;90.80;;;;;;6270777;28;20117;-83
2022/01/08 08:59:31;;;;;;;4.18;1.92;;;5.20;90.50;;;;;;6259259;28;20112;-83
2022/01/08 09:02:34;;;;;;;7.72;1.95;;;5.20;90.20;;;;;;6268925;28;20128;-85
2022/01/08 09:05:36;;;;;;;8.20;1.85;;;5.20;90.40;;;;;;6266766;28;20100;-85
2022/01/08 09:08:38;;;;;;;4.65;1.67;;;5.20;90.10;;;;;;6268409;28;20075;-86
2022/01/08 09:11:40;;;;;;;5.30;1.90;;;5.20;90.00;;;;;;6264648;28;20069;-84
2022/01/08 09:14:42;;;;;;;8.38;1.52;;;5.20;90.20;;;;;;6251546;28;20069;-85
2022/01/08 09:17:46;;;;;;;4.85;1.77;;;5.40;90.00;;;;;;6267956;28;20136;-85
2022/01/08 09:20:49;;;;;;;6.65;1.73;;;5.50;90.40;;;;;;6266904;28;20046;-86
2022/01/08 09:23:51;;;;;;;2.50;1.15;;;5.60;90.00;;;;;;6239535;28;20100;-87
2022/01/08 09:26:52;;;;;;;5.65;1.40;;;5.60;89.70;;;;;;6222083;28;20081;-85
2022/01/08 09:29:55;;;;;;;3.83;1.42;;;5.70;88.70;;;;;;6220186;28;20058;-85
2022/01/08 09:32:58;;;;;;;7.60;1.88;;;5.60;87.80;;;;;;6220005;28;20049;-83
2022/01/08 09:36:00;;;;;;;3.92;2.45;;;5.60;87.80;;;;;;6218791;28;20066;-83
2022/01/08 09:39:03;;;;;;;4.45;1.40;;;5.60;88.50;;;;;;6174554;28;20122;-84
2022/01/08 09:42:07;;;;;;;3.40;1.52;;;5.70;87.80;;;;;;6242137;28;20132;-83
2022/01/08 09:45:10;;;;;;;9.98;1.50;;;5.70;88.00;;;;;;6256816;28;20058;-83
2022/01/08 09:48:13;;;;;;;8.25;2.13;;;5.70;88.40;;;;;;6262109;28;20081;-81
2022/01/08 09:51:15;;;;;;;6.47;1.83;;;5.80;88.70;;;;;;6253858;28;20065;-82
2022/01/08 09:54:17;;;;;;;3.92;1.65;;;5.80;88.00;;;;;;6240175;28;20044;-80
2022/01/08 09:57:19;;;;;;;6.78;1.30;;;6.00;88.90;;;;;;6253970;28;20053;-81
2022/01/08 10:00:22;;;;;;;7.97;1.50;;;6.10;87.60;;;;;;6257861;28;20435;-81
2022/01/08 10:03:30;;;;;;;9.02;1.52;;;6.20;87.90;;;;;;6253504;28;20045;-79
2022/01/08 10:06:35;;;;;;;2.72;1.27;;;6.50;88.00;;;;;;6254306;28;20049;-81
2022/01/08 10:09:37;;;;;;;5.03;1.48;;;6.80;85.90;;;;;;6255343;28;20621;-83
2022/01/08 10:12:43;;;;;;;4.68;1.33;;;7.00;84.80;;;;;;6267266;28;20049;-84
2022/01/08 10:19:19;;;;;;;8.63;0.95;;;7.30;82.80;;;;;;6253598;28;20053;-80
2022/01/08 10:22:21;;;;;;;3.08;1.50;;;7.20;81.80;;;;;;6253253;28;20520;-79
2022/01/08 10:25:23;;;;;;;4.32;1.73;;;7.10;81.50;;;;;;6253384;28;20060;-80
2022/01/08 10:28:39;;;;;;;5.95;1.48;;;7.00;80.50;;;;;;6252912;28;20049;-79
2022/01/08 10:31:42;;;;;;;2.15;1.02;;;7.00;80.20;;;;;;6259100;28;20052;-83
2022/01/08 10:34:49;;;;;;;4.38;0.98;;;7.00;81.40;;;;;;6258601;28;20052;-83
2022/01/08 10:37:52;;;;;;;4.40;1.63;;;7.00;80.10;;;;;;6257199;28;20041;-82
2022/01/08 10:40:54;;;;;;;3.90;1.48;;;7.00;80.10;;;;;;6266257;28;20045;-83
2022/01/08 10:44:11;;;;;;;5.30;1.00;;;7.10;80.20;;;;;;6265438;28;20037;-82
2022/01/08 10:47:17;;;;;;;2.45;1.10;;;7.20;79.40;;;;;;6264230;28;20498;-84
2022/01/08 10:50:23;;;;;;;5.68;0.95;;;7.40;81.80;;;;;;6259641;28;20041;-83
2022/01/08 10:53:53;;;;;;;5.15;1.92;;;7.70;78.60;;;;;;6250953;28;20512;-80
2022/01/08 10:57:00;;;;;;;5.32;1.92;;;7.70;78.50;;;;;;6225936;28;20511;-78
2022/01/08 11:00:04;;;;;;;3.67;0.93;;;7.60;78.20;;;;;;6201229;28;20053;-80
2022/01/08 11:03:12;;;;;;;1.92;0.90;;;7.50;78.70;;;;;;6200860;28;20277;-80
2022/01/08 11:06:16;;;;;;;3.47;1.13;;;7.50;79.80;;;;;;6204193;28;20392;-83
2022/01/08 11:09:18;;;;;;;5.47;1.63;;;7.60;78.20;;;;;;6202836;28;20077;-79
2022/01/08 11:12:25;;;;;;;6.03;2.85;;;7.40;78.20;;;;;;6228565;28;20048;-79
2022/01/08 11:15:48;;;;;;;7.20;1.85;;;7.40;78.10;;;;;;6253447;28;20050;-83
2022/01/08 11:18:50;;;;;;;4.50;1.48;;;7.30;78.60;;;;;;6255372;28;20056;-82
2022/01/08 11:21:54;;;;;;;7.07;2.42;;;7.00;76.70;;;;;;6255248;28;20548;-80
2022/01/08 11:24:59;;;;;;;61.92;17.17;;;6.90;79.40;;;;;;6252033;28;20132;-79
2022/01/08 11:28:03;;;;;;;7.78;2.22;;;6.80;79.00;;;;;;6251031;28;20065;-80
2022/01/08 11:31:10;;;;;;;6.85;2.88;;;6.70;79.90;;;;;;6250641;28;20056;-80
2022/01/08 11:34:12;;;;;;;3.83;1.20;;;6.50;81.80;;;;;;6251487;28;20514;-80
2022/01/08 11:37:16;;;;;;;2.65;1.33;;;6.60;82.20;;;;;;6251499;28;20057;-80
2022/01/08 11:40:21;;;;;;;3.55;1.10;;;6.50;82.70;;;;;;6249574;28;20049;-82
2022/01/08 11:43:24;;;;;;;8.00;3.08;;;6.50;83.30;;;;;;6246498;28;20499;-82
2022/01/08 11:46:26;;;;;;;1.52;0.85;;;6.60;83.20;;;;;;6231749;28;20048;-84
2022/01/08 11:49:28;;;;;;;4.80;1.15;;;6.90;84.00;;;;;;6231308;28;20464;-80
2022/01/08 11:52:32;;;;;;;6.40;1.38;;;7.30;83.10;;;;;;6226863;28;20056;-81
2022/01/08 11:55:37;;;;;;;2.55;0.98;;;7.80;81.90;;;;;;6243125;28;20168;-80
2022/01/08 11:58:39;;;;;;;2.95;1.00;;;8.10;79.10;;;;;;6262249;23;20052;-80
2022/01/08 12:01:43;;;;;;;2.55;0.90;;;8.20;78.70;;;;;;6231788;28;20046;-81
2022/01/08 12:04:52;;;;;;;2.85;1.05;;;8.40;78.30;;;;;;6214055;28;20050;-80
2022/01/08 12:08:13;;;;;;;3.25;1.33;;;8.50;77.90;;;;;;6223846;28;20412;-81
2022/01/08 12:11:15;;;;;;;3.97;1.83;;;8.50;78.80;;;;;;6223868;28;20041;-81
2022/01/08 12:14:19;;;;;;;4.00;1.35;;;8.50;79.30;;;;;;6215453;28;20108;-81
2022/01/08 12:17:22;;;;;;;1.50;1.10;;;8.40;77.00;;;;;;6245723;28;20439;-81
2022/01/08 12:20:39;;;;;;;3.92;1.80;;;8.30;78.20;;;;;;6243538;28;20060;-82
2022/01/08 12:23:44;;;;;;;1.73;1.02;;;8.20;77.50;;;;;;6204772;28;20408;-81
2022/01/08 12:26:46;;;;;;;3.90;1.60;;;8.10;78.00;;;;;;6206525;28;20077;-80
2022/01/08 12:29:48;;;;;;;24.92;5.82;;;8.00;80.50;;;;;;6205926;28;20136;-81
2022/01/08 12:32:53;;;;;;;7.63;1.13;;;8.00;78.90;;;;;;6207710;28;20050;-81
2022/01/08 12:36:25;;;;;;;1.60;0.70;;;8.00;78.90;;;;;;6204716;28;20054;-80
2022/01/08 12:39:48;;;;;;;1.25;0.68;;;8.00;76.00;;;;;;6204867;28;20042;-81
2022/01/08 12:42:50;;;;;;;5.40;1.35;;;8.10;73.70;;;;;;6219550;28;20124;-81
2022/01/08 12:45:53;;;;;;;4.28;1.08;;;8.10;74.30;;;;;;6230163;28;20046;-80
2022/01/08 12:49:15;;;;;;;2.95;0.57;;;8.20;73.10;;;;;;6229094;28;20484;-81
2022/01/08 12:52:16;;;;;;;1.55;0.65;;;8.20;71.70;;;;;;6229907;28;20100;-79
2022/01/08 12:55:20;;;;;;;1.92;0.60;;;8.10;71.50;;;;;;6229020;28;20057;-82
2022/01/08 12:58:24;;;;;;;3.22;0.60;;;7.90;71.10;;;;;;6220836;28;20061;-82
2022/01/08 13:01:26;;;;;;;2.63;1.00;;;7.80;72.00;;;;;;6231016;28;20056;-81
2022/01/08 13:04:28;;;;;;;3.78;0.50;;;7.80;72.20;;;;;;6232775;28;20064;-82
2022/01/08 13:07:30;;;;;;;1.50;0.70;;;7.70;71.70;;;;;;6231622;28;20050;-82
2022/01/08 13:10:33;;;;;;;1.60;0.47;;;7.70;72.80;;;;;;6230411;28;20388;-83
2022/01/08 13:13:46;;;;;;;1.83;0.60;;;7.70;73.80;;;;;;6222294;28;20050;-82
2022/01/08 13:16:50;;;;;;;0.90;0.50;;;7.70;71.50;;;;;;6230946;28;20053;-82
2022/01/08 13:20:02;;;;;;;2.90;0.95;;;7.70;72.60;;;;;;6230997;28;20042;-82
2022/01/08 13:23:03;;;;;;;2.55;1.00;;;7.80;72.00;;;;;;6229972;28;20100;-82
2022/01/08 13:26:06;;;;;;;5.65;0.70;;;7.80;71.80;;;;;;6228785;28;20052;-82
2022/01/08 13:29:21;;;;;;;2.40;0.80;;;7.70;70.30;;;;;;6231312;28;20081;-82
2022/01/08 13:32:24;;;;;;;2.60;1.27;;;7.50;70.10;;;;;;6231437;28;20054;-83
2022/01/08 13:35:26;;;;;;;9.90;1.45;;;7.40;71.50;;;;;;6228253;28;20424;-82
2022/01/08 13:38:33;;;;;;;4.22;0.63;;;7.30;72.10;;;;;;6227186;28;20077;-82
2022/01/08 13:41:36;;;;;;;1.88;0.60;;;7.40;72.40;;;;;;6226181;28;20496;-81
2022/01/08 13:44:39;;;;;;;2.10;0.60;;;7.40;72.00;;;;;;6222053;28;20053;-81
2022/01/08 13:47:43;;;;;;;3.60;1.00;;;7.40;73.10;;;;;;6227646;28;20109;-81
2022/01/08 13:50:51;;;;;;;1.88;0.82;;;7.40;73.70;;;;;;6226632;28;20042;-82
2022/01/08 13:54:02;;;;;;;5.32;1.17;;;7.50;73.50;;;;;;6223833;28;20034;-82
2022/01/08 13:57:16;;;;;;;1.70;0.60;;;7.70;73.30;;;;;;6208236;28;20046;-82
2022/01/08 14:00:21;;;;;;;2.78;1.02;;;7.80;73.20;;;;;;6228270;28;20041;-81
2022/01/08 14:03:26;;;;;;;3.17;0.70;;;7.90;74.20;;;;;;6227132;28;20050;-79
2022/01/08 14:06:28;;;;;;;4.20;0.80;;;8.00;73.00;;;;;;6218904;28;20499;-82
2022/01/08 14:09:32;;;;;;;6.45;3.17;;;8.00;71.30;;;;;;6227247;28;20053;-82
2022/01/08 14:12:35;;;;;;;2.17;0.52;;;8.00;71.90;;;;;;6207496;28;20519;-81
2022/01/08 14:15:39;;;;;;;1.20;0.40;;;8.00;72.10;;;;;;6202975;28;20089;-80
2022/01/08 14:18:43;;;;;;;4.80;0.70;;;8.10;72.90;;;;;;6203528;28;20181;-81
2022/01/08 14:21:55;;;;;;;1.63;0.70;;;8.00;71.50;;;;;;6213975;28;20046;-82
2022/01/08 14:24:58;;;;;;;8.48;0.60;;;8.00;71.00;;;;;;6227472;28;20515;-81
2022/01/08 14:28:20;;;;;;;2.58;0.55;;;7.80;71.00;;;;;;6227111;28;20042;-81
2022/01/08 14:31:22;;;;;;;1.40;0.70;;;7.70;72.90;;;;;;6228220;28;20076;-82
2022/01/08 14:34:25;;;;;;;3.33;0.70;;;7.70;74.90;;;;;;6227529;28;20054;-79
2022/01/08 14:37:29;;;;;;;2.10;0.60;;;7.70;74.20;;;;;;6220978;28;20038;-81
2022/01/08 14:40:33;;;;;;;0.93;0.35;;;7.70;74.60;;;;;;6213090;28;20045;-81
2022/01/08 14:43:36;;;;;;;2.60;0.63;;;7.60;73.00;;;;;;6225902;28;20050;-81
2022/01/08 14:46:47;;;;;;;7.20;0.73;;;7.60;73.60;;;;;;6232394;28;20122;-81
2022/01/08 14:49:49;;;;;;;1.77;0.40;;;7.50;73.70;;;;;;6231650;28;20038;-80
2022/01/08 14:52:52;;;;;;;1.50;0.68;;;7.60;73.80;;;;;;6226868;28;20053;-82
2022/01/08 14:55:54;;;;;;;0.65;0.32;;;7.50;73.30;;;;;;6225681;28;20049;-81
2022/01/08 14:58:57;;;;;;;0.90;0.30;;;7.50;73.40;;;;;;6224698;28;20176;-81
2022/01/08 15:01:58;;;;;;;1.63;0.50;;;7.50;73.20;;;;;;6226412;28;20052;-80
2022/01/08 15:05:01;;;;;;;4.80;0.65;;;7.60;75.30;;;;;;6227044;28;20072;-82
2022/01/08 15:08:03;;;;;;;3.25;1.40;;;7.50;72.80;;;;;;6228099;28;20128;-82
2022/01/08 15:11:04;;;;;;;1.02;0.50;;;7.50;73.50;;;;;;6234360;28;20495;-82
2022/01/08 15:14:08;;;;;;;0.90;0.30;;;7.40;73.40;;;;;;6224569;28;20045;-81
2022/01/08 15:17:09;;;;;;;4.05;0.50;;;7.40;73.90;;;;;;6228693;28;20419;-79
2022/01/08 15:20:12;;;;;;;1.35;0.60;;;7.40;76.20;;;;;;6234842;28;20056;-80
2022/01/08 15:23:14;;;;;;;1.88;0.52;;;7.40;75.00;;;;;;6233216;28;20050;-80
2022/01/08 15:26:16;;;;;;;0.93;0.52;;;7.40;74.40;;;;;;6226076;28;20049;-82
2022/01/08 15:29:19;;;;;;;4.07;1.00;;;7.30;74.40;;;;;;6212520;28;20046;-81
2022/01/08 15:32:23;;;;;;;3.45;0.60;;;7.30;76.50;;;;;;6220322;28;20049;-81
2022/01/08 15:35:25;;;;;;;1.63;0.52;;;7.20;73.80;;;;;;6231612;28;20131;-81
2022/01/08 15:38:27;;;;;;;0.68;0.50;;;7.10;74.90;;;;;;6229358;28;20049;-81
2022/01/08 15:41:29;;;;;;;2.22;0.40;;;7.00;73.70;;;;;;6225315;28;20490;-80
2022/01/08 15:44:32;;;;;;;1.90;0.43;;;6.90;74.10;;;;;;6217926;28;20050;-81
2022/01/08 15:47:34;;;;;;;2.47;0.40;;;6.80;72.90;;;;;;6209581;28;20042;-80
2022/01/08 15:50:36;;;;;;;1.73;0.45;;;6.70;76.10;;;;;;6240199;28;20042;-79
2022/01/08 15:53:37;;;;;;;1.58;0.57;;;6.70;73.60;;;;;;6224028;28;20097;-83
2022/01/08 15:56:40;;;;;;;1.23;0.43;;;6.50;75.00;;;;;;6214959;28;20054;-83
2022/01/08 15:59:43;;;;;;;2.55;0.43;;;6.50;77.10;;;;;;6226527;28;20045;-83
2022/01/08 16:02:46;;;;;;;0.75;0.40;;;6.60;75.30;;;;;;6211797;28;20473;-82
2022/01/08 16:05:47;;;;;;;0.73;0.30;;;6.60;76.50;;;;;;6207344;28;20053;-83
2022/01/08 16:08:49;;;;;;;4.07;1.33;;;6.60;79.20;;;;;;6207358;28;20056;-81
2022/01/08 16:11:51;;;;;;;3.28;0.40;;;6.70;80.80;;;;;;6205927;28;20042;-82
2022/01/08 16:14:54;;;;;;;3.25;0.50;;;6.80;79.80;;;;;;6222041;28;20065;-82
2022/01/08 16:17:56;;;;;;;0.95;0.30;;;6.80;80.60;;;;;;6228426;28;20042;-82
2022/01/08 16:20:58;;;;;;;2.75;0.60;;;6.90;81.40;;;;;;6227626;28;20104;-82
2022/01/08 16:24:00;;;;;;;3.22;0.60;;;6.90;82.20;;;;;;6227539;28;20085;-82
2022/01/08 16:27:03;;;;;;;0.55;0.30;;;6.90;83.10;;;;;;6226049;28;20124;-82
2022/01/08 16:30:07;;;;;;;0.73;0.30;;;7.00;83.50;;;;;;6226838;28;20037;-81
2022/01/08 16:33:12;;;;;;;1.10;0.77;;;7.00;82.60;;;;;;6227369;28;20509;-82
2022/01/08 16:36:13;;;;;;;0.63;0.30;;;7.00;79.00;;;;;;6230190;28;20188;-81
2022/01/08 16:39:16;;;;;;;0.82;0.30;;;7.00;78.80;;;;;;6228407;28;20050;-80
2022/01/08 16:42:18;;;;;;;1.40;0.63;;;6.90;78.80;;;;;;6208219;28;20054;-81
2022/01/08 16:45:23;;;;;;;1.55;0.82;;;6.90;78.00;;;;;;6226536;28;20058;-82
2022/01/08 16:48:25;;;;;;;2.85;0.50;;;6.80;76.80;;;;;;6227013;28;20054;-81
2022/01/08 16:51:27;;;;;;;2.53;0.28;;;6.60;76.90;;;;;;6227014;28;20045;-81
2022/01/08 16:54:29;;;;;;;5.00;0.52;;;6.30;79.10;;;;;;6227020;28;20460;-80
2022/01/08 16:57:31;;;;;;;2.97;0.90;;;6.20;80.20;;;;;;6227195;28;20053;-82